createdAt,value
2022-11-30T00:01:11.631Z,47.90
2022-11-30T00:03:38.452Z,46.33
2022-11-30T00:06:09.862Z,51.47
2022-11-30T00:08:36.412Z,43.57
2022-11-30T00:11:18.030Z,52.20
2022-11-30T00:13:44.567Z,54.53
2022-11-30T00:16:11.047Z,46.10
2022-11-30T00:18:37.950Z,57.73
2022-11-30T00:21:08.641Z,59.03
2022-11-30T00:23:37.276Z,44.27
2022-11-30T00:26:05.112Z,51.40
2022-11-30T00:28:32.870Z,44.13
2022-11-30T00:31:05.011Z,49.63
2022-11-30T00:33:36.392Z,54.90
2022-11-30T00:36:06.541Z,48.50
2022-11-30T00:38:33.614Z,44.20
2022-11-30T00:41:01.138Z,48.83
2022-11-30T00:43:28.007Z,39.57
2022-11-30T00:45:54.880Z,46.50
2022-11-30T00:48:21.422Z,51.77
2022-11-30T00:50:49.357Z,50.97
2022-11-30T00:53:16.136Z,41.80
2022-11-30T00:55:43.884Z,43.77
2022-11-30T00:58:10.914Z,42.40
2022-11-30T01:00:37.828Z,46.17
2022-11-30T01:03:05.066Z,46.07
2022-11-30T01:05:33.649Z,50.73
2022-11-30T01:08:01.601Z,50.87
2022-11-30T01:10:28.237Z,39.40
2022-11-30T01:12:54.765Z,49.37
2022-11-30T01:15:21.496Z,44.67
2022-11-30T01:17:48.625Z,53.67
2022-11-30T01:20:15.115Z,50.13
2022-11-30T01:22:41.575Z,51.80
2022-11-30T01:25:08.565Z,43.80
2022-11-30T01:27:35.072Z,51.03
2022-11-30T01:30:01.939Z,49.20
2022-11-30T01:32:28.660Z,46.70
2022-11-30T01:34:55.201Z,44.60
2022-11-30T01:37:21.751Z,47.80
2022-11-30T01:39:48.177Z,40.83
2022-11-30T01:42:17.223Z,46.83
2022-11-30T01:44:58.045Z,38.43
2022-11-30T01:47:30.776Z,41.00
2022-11-30T01:50:03.200Z,47.03
2022-11-30T01:52:34.618Z,45.20
2022-11-30T01:55:11.021Z,43.33
2022-11-30T01:57:41.612Z,47.57
2022-11-30T02:00:11.132Z,40.10
2022-11-30T02:02:46.905Z,40.23
2022-11-30T02:05:14.422Z,46.63
2022-11-30T02:07:41.444Z,46.13
2022-11-30T02:10:12.889Z,41.03
2022-11-30T02:13:01.216Z,45.53
2022-11-30T02:15:32.104Z,47.27
2022-11-30T02:18:09.020Z,53.00
2022-11-30T02:20:46.117Z,46.53
2022-11-30T02:23:21.026Z,49.07
2022-11-30T02:26:20.681Z,42.67
2022-11-30T02:29:16.462Z,59.73
2022-11-30T02:32:02.391Z,55.53
2022-11-30T02:34:30.949Z,52.83
2022-11-30T02:36:59.624Z,54.27
2022-11-30T02:39:26.198Z,40.67
2022-11-30T02:41:52.858Z,44.70
2022-11-30T02:44:20.694Z,52.70
2022-11-30T02:47:10.889Z,44.53
2022-11-30T02:50:01.733Z,52.20
2022-11-30T02:52:29.124Z,61.50
2022-11-30T02:55:04.048Z,53.03
2022-11-30T02:57:30.862Z,41.93
2022-11-30T02:59:57.717Z,48.70
2022-11-30T03:02:24.268Z,50.40
2022-11-30T03:04:50.845Z,51.73
2022-11-30T03:07:17.365Z,46.97
2022-11-30T03:09:43.904Z,52.47
2022-11-30T03:12:10.440Z,46.40
2022-11-30T03:14:37.061Z,47.03
2022-11-30T03:17:03.650Z,43.63
2022-11-30T03:19:30.213Z,50.57
2022-11-30T03:21:56.723Z,39.90
2022-11-30T03:24:23.493Z,41.00
2022-11-30T03:26:51.022Z,37.83
2022-11-30T03:29:17.521Z,49.00
2022-11-30T03:31:44.071Z,47.13
2022-11-30T03:34:10.538Z,44.63
2022-11-30T03:36:37.221Z,43.07
2022-11-30T03:39:04.069Z,42.53
2022-11-30T03:41:30.609Z,53.77
2022-11-30T03:43:57.404Z,49.03
2022-11-30T03:46:23.981Z,47.17
2022-11-30T03:48:50.526Z,44.30
2022-11-30T03:51:16.994Z,31.80
2022-11-30T03:53:43.658Z,38.20
2022-11-30T03:56:11.187Z,41.70
2022-11-30T03:58:38.560Z,43.93
2022-11-30T04:01:07.683Z,45.40
2022-11-30T04:03:34.843Z,47.83
2022-11-30T04:06:01.874Z,46.97
2022-11-30T04:08:29.682Z,46.87
2022-11-30T04:10:57.606Z,35.80
2022-11-30T04:13:24.809Z,56.27
2022-11-30T04:15:52.443Z,39.50
2022-11-30T04:18:20.090Z,37.40
2022-11-30T04:20:46.910Z,42.43
2022-11-30T04:23:13.600Z,41.17
2022-11-30T04:25:41.626Z,37.63
2022-11-30T04:28:09.328Z,32.83
2022-11-30T04:30:36.697Z,39.93
2022-11-30T04:33:03.749Z,47.00
2022-11-30T04:35:30.322Z,41.67
2022-11-30T04:37:56.923Z,41.43
2022-11-30T04:40:23.438Z,40.53
2022-11-30T04:42:49.945Z,39.37
2022-11-30T04:45:16.752Z,39.77
2022-11-30T04:47:43.285Z,32.13
2022-11-30T04:50:10.138Z,32.77
2022-11-30T04:52:36.792Z,34.10
2022-11-30T04:55:04.369Z,41.67
2022-11-30T04:57:31.686Z,30.17
2022-11-30T04:59:58.171Z,31.13
2022-11-30T05:02:24.896Z,31.57
2022-11-30T05:04:51.460Z,30.23
2022-11-30T05:07:18.457Z,30.43
2022-11-30T05:09:45.055Z,23.37
2022-11-30T05:12:11.512Z,33.07
2022-11-30T05:14:38.448Z,30.40
2022-11-30T05:17:05.023Z,33.23
2022-11-30T05:19:31.721Z,31.90
2022-11-30T05:21:58.370Z,32.97
2022-11-30T05:24:24.878Z,32.77
2022-11-30T05:26:51.455Z,33.37
2022-11-30T05:29:17.930Z,43.37
2022-11-30T05:31:44.505Z,33.23
2022-11-30T05:34:11.298Z,41.63
2022-11-30T05:36:37.722Z,57.27
2022-11-30T05:39:04.396Z,28.40
2022-11-30T05:41:30.943Z,27.10
2022-11-30T05:43:57.585Z,33.67
2022-11-30T05:46:24.124Z,48.07
2022-11-30T05:48:50.668Z,34.17
2022-11-30T05:51:18.881Z,29.17
2022-11-30T05:53:46.123Z,37.53
2022-11-30T05:56:15.747Z,33.57
2022-11-30T05:58:43.179Z,30.57
2022-11-30T06:01:21.664Z,30.50
2022-11-30T06:03:48.408Z,37.43
2022-11-30T06:06:14.884Z,24.53
2022-11-30T06:08:41.865Z,36.10
2022-11-30T06:11:08.386Z,27.77
2022-11-30T06:13:34.908Z,29.90
2022-11-30T06:16:02.852Z,34.27
2022-11-30T06:18:29.846Z,29.93
2022-11-30T06:21:01.217Z,31.10
2022-11-30T06:23:27.772Z,27.53
2022-11-30T06:25:54.277Z,26.23
2022-11-30T06:28:20.800Z,28.93
2022-11-30T06:30:47.362Z,31.20
2022-11-30T06:33:13.908Z,25.27
2022-11-30T06:35:46.910Z,29.13
2022-11-30T06:38:13.760Z,29.50
2022-11-30T06:40:40.246Z,25.57
2022-11-30T06:43:06.783Z,24.63
2022-11-30T06:45:33.251Z,27.87
2022-11-30T06:47:59.796Z,28.97
2022-11-30T06:50:26.528Z,23.63
2022-11-30T06:52:53.064Z,27.30
2022-11-30T06:55:19.685Z,24.73
2022-11-30T06:57:46.336Z,27.80
2022-11-30T07:00:14.139Z,29.23
2022-11-30T07:02:40.962Z,23.93
2022-11-30T07:05:07.634Z,40.40
2022-11-30T07:07:34.300Z,31.00
2022-11-30T07:10:00.859Z,26.97
2022-11-30T07:12:27.571Z,32.50
2022-11-30T07:14:56.991Z,28.97
2022-11-30T07:17:23.454Z,19.10
2022-11-30T07:19:50.003Z,25.63
2022-11-30T07:22:16.478Z,27.27
2022-11-30T07:25:01.528Z,25.90
2022-11-30T07:27:28.010Z,27.60
2022-11-30T07:29:54.730Z,23.30
2022-11-30T07:32:21.366Z,21.73
2022-11-30T07:34:48.177Z,21.77
2022-11-30T07:37:15.458Z,20.27
2022-11-30T07:39:42.078Z,21.83
2022-11-30T07:42:08.644Z,21.90
2022-11-30T07:44:35.142Z,24.60
2022-11-30T07:47:01.640Z,18.30
2022-11-30T07:49:28.160Z,17.23
2022-11-30T07:51:54.900Z,19.40
2022-11-30T07:54:21.719Z,23.20
2022-11-30T07:56:48.322Z,21.77
2022-11-30T07:59:14.834Z,20.27
2022-11-30T08:01:41.494Z,23.53
2022-11-30T08:04:08.018Z,24.37
2022-11-30T08:06:34.524Z,24.97
2022-11-30T08:09:02.734Z,19.93
2022-11-30T08:11:31.118Z,22.30
2022-11-30T08:13:57.767Z,29.30
2022-11-30T08:16:35.868Z,29.93
2022-11-30T08:19:02.631Z,27.40
2022-11-30T08:21:29.300Z,22.30
2022-11-30T08:23:57.030Z,25.07
2022-11-30T08:26:26.370Z,21.50
2022-11-30T08:28:53.408Z,24.97
2022-11-30T08:31:22.479Z,23.37
2022-11-30T08:33:49.973Z,24.73
2022-11-30T08:36:22.033Z,27.13
2022-11-30T08:38:49.014Z,28.60
2022-11-30T08:41:19.013Z,20.47
2022-11-30T08:43:46.034Z,22.90
2022-11-30T08:46:51.046Z,20.77
2022-11-30T08:49:20.245Z,19.70
2022-11-30T08:54:40.454Z,23.90
2022-11-30T08:57:06.949Z,25.77
2022-11-30T08:59:33.721Z,20.13
2022-11-30T09:02:00.424Z,22.40
2022-11-30T09:04:27.087Z,22.83
2022-11-30T09:06:53.705Z,27.13
2022-11-30T09:09:20.263Z,22.00
2022-11-30T09:11:46.747Z,27.50
2022-11-30T09:14:13.381Z,30.13
2022-11-30T09:16:39.925Z,21.50
2022-11-30T09:19:06.586Z,34.17
2022-11-30T09:21:33.219Z,18.90
2022-11-30T09:24:00.008Z,19.77
2022-11-30T09:26:26.699Z,30.23
2022-11-30T09:28:54.161Z,18.30
2022-11-30T09:31:22.472Z,23.50
2022-11-30T09:33:49.185Z,27.03
2022-11-30T09:36:18.522Z,24.23
2022-11-30T09:38:45.215Z,26.20
2022-11-30T09:41:49.491Z,21.33
2022-11-30T09:44:24.206Z,19.87
2022-11-30T09:47:01.526Z,25.80
2022-11-30T09:49:32.171Z,26.43
2022-11-30T09:52:03.601Z,27.00
2022-11-30T09:54:35.641Z,24.93
2022-11-30T09:57:35.175Z,20.80
2022-11-30T10:00:05.781Z,20.30
2022-11-30T10:02:35.031Z,20.73
2022-11-30T10:05:02.099Z,19.07
2022-11-30T10:08:01.210Z,21.13
2022-11-30T10:10:40.370Z,19.00
2022-11-30T10:13:09.713Z,21.47
2022-11-30T10:15:55.274Z,18.73
2022-11-30T10:18:33.805Z,20.37
2022-11-30T10:21:32.840Z,30.13
2022-11-30T10:24:14.825Z,16.80
2022-11-30T10:26:53.717Z,21.60
2022-11-30T10:29:38.160Z,27.90
2022-11-30T10:32:19.883Z,17.40
2022-11-30T10:34:53.121Z,30.90
2022-11-30T10:37:19.808Z,16.90
2022-11-30T10:39:55.198Z,28.20
2022-11-30T10:42:26.397Z,21.90
2022-11-30T10:45:07.007Z,27.37
2022-11-30T10:47:37.115Z,11.50
2022-11-30T10:50:06.604Z,25.67
2022-11-30T10:52:43.787Z,21.57
2022-11-30T10:55:16.167Z,16.80
2022-11-30T10:57:43.459Z,17.70
2022-11-30T11:00:15.042Z,18.70
2022-11-30T11:02:45.844Z,16.00
2022-11-30T11:05:19.682Z,12.50
2022-11-30T11:08:06.782Z,13.60
2022-11-30T11:10:36.819Z,19.03
2022-11-30T11:13:04.066Z,14.40
2022-11-30T11:15:33.121Z,16.40
2022-11-30T11:18:21.496Z,15.73
2022-11-30T11:20:48.050Z,23.43
2022-11-30T11:23:23.043Z,17.00
2022-11-30T11:25:53.078Z,16.10
2022-11-30T11:28:22.136Z,15.57
2022-11-30T11:30:48.891Z,14.67
2022-11-30T11:33:15.360Z,14.80
2022-11-30T11:35:53.574Z,16.30
2022-11-30T11:38:29.548Z,16.40
2022-11-30T11:40:59.119Z,15.13
2022-11-30T11:43:27.756Z,17.23
2022-11-30T11:45:56.523Z,16.07
2022-11-30T11:48:41.522Z,18.73
2022-11-30T11:51:10.555Z,19.70
2022-11-30T11:53:50.094Z,16.57
2022-11-30T11:56:34.815Z,22.43
2022-11-30T11:59:10.582Z,16.73
2022-11-30T12:01:57.684Z,25.30
2022-11-30T12:04:41.275Z,27.30
2022-11-30T12:07:39.153Z,23.17
2022-11-30T12:10:51.099Z,32.53
2022-11-30T12:13:19.405Z,29.20
2022-11-30T12:16:01.259Z,28.93
2022-11-30T12:18:50.393Z,28.63
2022-11-30T12:21:29.103Z,27.80
2022-11-30T12:23:55.439Z,33.37
2022-11-30T12:26:33.257Z,38.40
2022-11-30T12:29:05.844Z,34.57
2022-11-30T12:32:01.280Z,25.10
2022-11-30T12:34:39.868Z,34.73
2022-11-30T12:37:35.271Z,37.83
2022-11-30T12:40:20.570Z,37.73
2022-11-30T12:42:54.103Z,44.80
2022-11-30T12:45:29.653Z,35.90
2022-11-30T12:47:59.205Z,37.10
2022-11-30T12:50:53.644Z,49.63
2022-11-30T12:53:46.414Z,49.77
2022-11-30T12:56:34.601Z,43.63
2022-11-30T12:59:28.256Z,44.07
2022-11-30T13:02:00.860Z,50.73
2022-11-30T13:04:39.152Z,41.70
2022-11-30T13:07:13.102Z,49.37
2022-11-30T13:09:50.644Z,42.33
2022-11-30T13:12:24.326Z,49.00
2022-11-30T13:14:58.438Z,51.40
2022-11-30T13:17:26.714Z,53.00
2022-11-30T13:20:07.787Z,48.80
2022-11-30T13:22:48.403Z,50.30
2022-11-30T13:26:06.367Z,46.90
2022-11-30T13:28:58.255Z,46.50
2022-11-30T13:31:30.745Z,47.63
2022-11-30T13:34:00.827Z,51.17
2022-11-30T13:36:40.131Z,45.33
2022-11-30T13:39:22.883Z,43.70
2022-11-30T13:42:01.477Z,47.80
2022-11-30T13:44:39.072Z,45.13
2022-11-30T13:47:16.122Z,45.23
2022-11-30T13:49:42.807Z,43.17
2022-11-30T13:52:22.558Z,50.27
2022-11-30T13:54:53.891Z,56.30
2022-11-30T13:57:29.684Z,55.37
2022-11-30T14:00:00.650Z,55.10
2022-11-30T14:02:42.967Z,54.63
2022-11-30T14:05:32.764Z,51.23
2022-11-30T14:07:59.237Z,55.50
2022-11-30T14:10:41.569Z,48.83
2022-11-30T14:13:10.995Z,58.67
2022-11-30T14:15:43.834Z,47.40
2022-11-30T14:18:15.663Z,47.03
2022-11-30T14:20:45.058Z,53.93
2022-11-30T14:23:14.245Z,58.50
2022-11-30T14:25:47.132Z,58.80
2022-11-30T14:28:18.193Z,51.00
2022-11-30T14:30:45.339Z,51.93
2022-11-30T14:33:19.470Z,54.33
2022-11-30T14:35:49.775Z,62.13
2022-11-30T14:38:29.559Z,75.53
2022-11-30T14:40:56.985Z,72.67
2022-11-30T14:43:24.037Z,50.37
2022-11-30T14:46:05.703Z,54.60
2022-11-30T14:48:33.755Z,59.20
2022-11-30T14:51:03.002Z,58.93
2022-11-30T14:53:55.412Z,138.30
2022-11-30T14:56:43.251Z,144.00
2022-11-30T14:59:26.859Z,50.90
2022-11-30T15:02:01.888Z,68.23
2022-11-30T15:04:29.643Z,56.63
2022-11-30T15:06:56.725Z,54.87
2022-11-30T15:09:26.709Z,54.00
2022-11-30T15:11:53.600Z,44.50
2022-11-30T15:14:20.394Z,59.40
2022-11-30T15:16:54.981Z,54.20
2022-11-30T15:19:27.568Z,55.33
2022-11-30T15:21:54.814Z,84.30
2022-11-30T15:24:22.097Z,46.90
2022-11-30T15:26:57.668Z,61.70
2022-11-30T15:29:26.092Z,52.17
2022-11-30T15:31:54.085Z,118.87
2022-11-30T15:34:26.850Z,60.30
2022-11-30T15:36:55.722Z,54.33
2022-11-30T15:39:24.412Z,69.37
2022-11-30T15:41:54.938Z,49.03
2022-11-30T15:44:25.579Z,49.77
2022-11-30T15:46:58.738Z,56.70
2022-11-30T15:49:27.278Z,53.00
2022-11-30T15:51:59.889Z,46.80
2022-11-30T15:54:46.084Z,60.87
2022-11-30T15:57:12.833Z,50.23
2022-11-30T15:59:39.911Z,70.50
2022-11-30T16:02:14.358Z,64.13
2022-11-30T16:05:21.039Z,59.10
2022-11-30T16:08:02.639Z,56.00
2022-11-30T16:10:40.733Z,58.37
2022-11-30T16:13:07.230Z,50.73
2022-11-30T16:15:36.873Z,61.63
2022-11-30T16:18:21.022Z,76.13
2022-11-30T16:20:50.444Z,69.43
2022-11-30T16:23:17.410Z,54.33
2022-11-30T16:25:45.401Z,61.90
2022-11-30T16:28:13.607Z,67.03
2022-11-30T16:30:41.302Z,55.93
2022-11-30T16:33:14.908Z,49.10
2022-11-30T16:35:48.614Z,58.40
2022-11-30T16:38:15.162Z,53.07
2022-11-30T16:40:41.643Z,61.33
2022-11-30T16:43:10.855Z,55.83
2022-11-30T16:45:38.225Z,56.87
2022-11-30T16:48:05.181Z,52.43
2022-11-30T16:50:34.643Z,55.27
2022-11-30T16:53:01.899Z,52.60
2022-11-30T16:55:34.701Z,42.77
2022-11-30T16:58:02.063Z,53.13
2022-11-30T17:00:28.600Z,52.07
2022-11-30T17:02:58.452Z,48.33
2022-11-30T17:05:26.118Z,46.07
2022-11-30T17:07:52.943Z,50.50
2022-11-30T17:10:20.195Z,59.57
2022-11-30T17:12:46.730Z,63.50
2022-11-30T17:15:19.180Z,59.53
2022-11-30T17:17:45.609Z,66.63
2022-11-30T17:20:13.720Z,57.40
2022-11-30T17:22:40.670Z,48.70
2022-11-30T17:25:09.860Z,55.47
2022-11-30T17:27:36.413Z,51.50
2022-11-30T17:30:03.354Z,47.40
2022-11-30T17:32:30.018Z,102.47
2022-11-30T17:34:56.570Z,44.93
2022-11-30T17:37:23.239Z,50.50
2022-11-30T17:39:50.480Z,43.27
2022-11-30T17:42:17.017Z,53.17
2022-11-30T17:44:43.530Z,52.03
2022-11-30T17:47:10.099Z,54.00
2022-11-30T17:49:36.624Z,47.77
2022-11-30T17:52:03.221Z,50.10
2022-11-30T17:54:29.766Z,48.67
2022-11-30T17:56:56.808Z,46.73
2022-11-30T18:01:57.789Z,55.80
2022-11-30T18:04:24.535Z,59.77
2022-11-30T18:06:51.402Z,45.30
2022-11-30T18:09:18.148Z,57.03
2022-11-30T18:11:44.669Z,54.47
2022-11-30T18:14:11.254Z,50.57
2022-11-30T18:16:38.246Z,55.83
2022-11-30T18:19:11.888Z,49.93
2022-11-30T18:21:40.267Z,52.90
2022-11-30T18:24:07.417Z,62.07
2022-11-30T18:26:35.626Z,44.13
2022-11-30T18:29:02.647Z,49.27
2022-11-30T18:31:30.729Z,52.83
2022-11-30T18:34:03.093Z,44.83
2022-11-30T18:36:30.065Z,52.90
2022-11-30T18:38:56.637Z,46.27
2022-11-30T18:41:25.955Z,49.20
2022-11-30T18:43:56.023Z,62.27
2022-11-30T18:46:22.658Z,44.10
2022-11-30T18:48:50.403Z,56.87
2022-11-30T18:51:27.883Z,51.73
2022-11-30T18:53:57.768Z,47.10
2022-11-30T18:56:26.161Z,55.07
2022-11-30T18:59:04.971Z,49.23
2022-11-30T19:01:31.969Z,53.57
2022-11-30T19:04:03.869Z,47.73
2022-11-30T19:06:32.900Z,51.53
2022-11-30T19:09:01.518Z,49.10
2022-11-30T19:11:28.121Z,47.37
2022-11-30T19:13:56.484Z,47.90
2022-11-30T19:16:24.708Z,50.10
2022-11-30T19:18:52.030Z,52.33
2022-11-30T19:21:19.952Z,51.67
2022-11-30T19:23:46.973Z,48.33
2022-11-30T19:26:14.308Z,50.20
2022-11-30T19:28:42.653Z,45.83
2022-11-30T19:31:14.338Z,61.07
2022-11-30T19:33:42.303Z,65.30
2022-11-30T19:36:13.092Z,53.20
2022-11-30T19:38:39.701Z,53.03
2022-11-30T19:41:07.732Z,52.20
2022-11-30T19:43:34.417Z,48.43
2022-11-30T19:46:06.364Z,47.77
2022-11-30T19:48:33.491Z,49.97
2022-11-30T19:51:00.146Z,46.80
2022-11-30T19:53:28.295Z,52.60
2022-11-30T19:55:54.717Z,40.27
2022-11-30T19:58:21.374Z,52.00
2022-11-30T20:00:48.445Z,51.33
2022-11-30T20:03:15.088Z,48.33
2022-11-30T20:05:48.422Z,55.33
2022-11-30T20:08:14.985Z,47.53
2022-11-30T20:10:41.472Z,49.57
2022-11-30T20:13:07.991Z,42.87
2022-11-30T20:15:34.702Z,52.30
2022-11-30T20:18:01.219Z,50.17
2022-11-30T20:20:27.749Z,43.97
2022-11-30T20:22:54.256Z,52.70
2022-11-30T20:25:21.250Z,51.83
2022-11-30T20:27:49.720Z,57.90
2022-11-30T20:30:16.894Z,60.10
2022-11-30T20:32:43.548Z,48.97
2022-11-30T20:35:10.421Z,35.73
2022-11-30T20:37:37.222Z,49.13
2022-11-30T20:40:04.721Z,38.33
2022-11-30T20:42:31.280Z,47.40
2022-11-30T20:44:57.911Z,41.00
2022-11-30T20:47:24.365Z,51.80
2022-11-30T20:49:50.919Z,49.63
2022-11-30T20:52:17.389Z,51.67
2022-11-30T20:54:43.839Z,44.47
2022-11-30T20:57:10.425Z,56.93
2022-11-30T20:59:36.900Z,43.17
2022-11-30T21:02:04.002Z,45.13
2022-11-30T21:04:30.707Z,43.87
2022-11-30T21:06:57.268Z,43.83
2022-11-30T21:09:23.852Z,53.53
2022-11-30T21:11:50.394Z,51.87
2022-11-30T21:14:17.929Z,48.97
2022-11-30T21:16:44.853Z,44.13
2022-11-30T21:19:11.812Z,54.00
2022-11-30T21:21:38.359Z,51.73
2022-11-30T21:24:07.693Z,38.50
2022-11-30T21:26:39.306Z,50.27
2022-11-30T21:29:14.458Z,50.00
2022-11-30T21:31:41.254Z,58.67
2022-11-30T21:34:08.012Z,45.90
2022-11-30T21:36:34.837Z,45.03
2022-11-30T21:39:06.058Z,45.07
2022-11-30T21:41:38.408Z,40.67
2022-11-30T21:44:06.367Z,44.57
2022-11-30T21:46:33.670Z,40.57
2022-11-30T21:49:00.574Z,46.47
2022-11-30T21:51:28.648Z,56.93
2022-11-30T21:53:58.289Z,47.13
2022-11-30T21:56:28.511Z,45.93
2022-11-30T21:58:55.677Z,49.93
2022-11-30T22:01:26.067Z,55.07
2022-11-30T22:03:54.446Z,48.40
2022-11-30T22:06:21.532Z,52.07
2022-11-30T22:08:48.208Z,47.50
2022-11-30T22:11:20.751Z,48.17
2022-11-30T22:13:54.162Z,43.60
2022-11-30T22:16:22.772Z,49.20
2022-11-30T22:18:53.149Z,45.20
2022-11-30T22:21:21.866Z,48.80
2022-11-30T22:23:56.736Z,56.23
2022-11-30T22:26:24.750Z,40.80
2022-11-30T22:29:22.546Z,47.30
2022-11-30T22:31:51.370Z,64.27
2022-11-30T22:34:18.285Z,42.73
2022-11-30T22:36:45.793Z,41.33
2022-11-30T22:39:14.638Z,43.33
2022-11-30T22:41:42.199Z,50.77
2022-11-30T22:44:12.691Z,46.97
2022-11-30T22:46:39.197Z,54.80
2022-11-30T22:49:07.610Z,45.57
2022-11-30T22:51:35.925Z,48.33
2022-11-30T22:54:02.692Z,43.40
2022-11-30T22:56:32.388Z,46.37
2022-11-30T22:59:00.897Z,46.23
2022-11-30T23:01:33.125Z,48.97
2022-11-30T23:04:14.095Z,42.67
2022-11-30T23:06:41.755Z,45.73
2022-11-30T23:09:12.200Z,46.87
2022-11-30T23:11:38.858Z,48.83
2022-11-30T23:14:08.301Z,50.37
2022-11-30T23:16:36.196Z,40.90
2022-11-30T23:19:03.514Z,43.43
2022-11-30T23:21:37.346Z,46.27
2022-11-30T23:24:08.210Z,46.30
2022-11-30T23:26:36.901Z,41.63
2022-11-30T23:29:09.399Z,43.17
2022-11-30T23:31:37.956Z,49.87
2022-11-30T23:34:06.978Z,48.53
2022-11-30T23:36:34.049Z,43.67
2022-11-30T23:39:03.725Z,54.90
2022-11-30T23:41:30.268Z,52.17
2022-11-30T23:43:56.925Z,50.97
2022-11-30T23:46:24.218Z,49.63
2022-11-30T23:48:50.841Z,48.43
2022-11-30T23:51:17.379Z,55.77
2022-11-30T23:53:44.053Z,37.27
2022-11-30T23:56:13.438Z,44.87
2022-11-30T23:58:40.026Z,50.33
